Time;durP1;ratioP1;P1;durP2;ratioP2;P2;SDS_P1;SDS_P2;PMS_P1;PMS_P2;Temp;Humidity;BMP_temperature;BMP_pressure;BME280_temperature;BME280_humidity;BME280_pressure;Samples;Min_cycle;Max_cycle;Signal;HPM_P1;HPM_P2
2023/04/27 00:01:32;;;;;;;6.90;3.10;;;;;;;2.52;70.10;96740.73;109088;1265;22531;-84
2023/04/27 00:04:05;;;;;;;12.20;3.40;;;;;;;2.49;70.15;96738.52;109171;1273;22519;-83
2023/04/27 00:06:36;;;;;;;7.70;3.30;;;;;;;2.53;70.22;96735.48;109151;1265;22529;-83
2023/04/27 00:09:07;;;;;;;6.40;3.20;;;;;;;2.51;70.15;96734.58;109099;1265;23643;-84
2023/04/27 00:11:38;;;;;;;9.40;4.20;;;;;;;2.46;70.32;96735.42;109218;1265;22526;-83
2023/04/27 00:14:09;;;;;;;7.90;3.50;;;;;;;2.50;70.19;96735.77;109094;1272;22853;-83
2023/04/27 00:16:40;;;;;;;7.80;3.40;;;;;;;2.48;70.06;96738.97;109173;1264;23862;-84
2023/04/27 00:19:12;;;;;;;9.10;3.70;;;;;;;2.43;70.28;96740.83;109313;1271;22546;-83
2023/04/27 00:21:43;;;;;;;8.10;3.80;;;;;;;2.40;70.28;96737.30;109379;1271;22653;-83
2023/04/27 00:24:14;;;;;;;8.00;3.90;;;;;;;2.42;70.17;96743.17;109303;1266;23285;-83
2023/04/27 00:26:45;;;;;;;8.20;3.80;;;;;;;2.42;70.15;96739.52;109290;1272;23216;-83
2023/04/27 00:29:16;;;;;;;5.80;3.40;;;;;;;2.37;70.31;96743.52;109276;1272;22524;-84
2023/04/27 00:31:47;;;;;;;7.80;4.10;;;;;;;2.31;70.42;96741.22;109314;1272;22510;-83
2023/04/27 00:34:18;;;;;;;7.00;3.50;;;;;;;2.29;70.36;96746.61;109165;1272;22491;-83
2023/04/27 00:36:49;;;;;;;7.80;3.20;;;;;;;2.33;70.46;96737.40;109150;1272;22949;-83
2023/04/27 00:39:20;;;;;;;9.20;3.10;;;;;;;2.27;70.83;96739.55;109241;1272;23774;-83
2023/04/27 00:42:00;;;;;;;8.30;2.90;;;;;;;2.10;71.80;96740.66;109090;1272;179270;-83
2023/04/27 00:44:31;;;;;;;8.90;3.80;;;;;;;2.04;72.01;96739.65;109280;1272;22508;-83
2023/04/27 00:47:02;;;;;;;6.80;3.10;;;;;;;2.05;72.29;96739.07;109156;1272;22533;-83
2023/04/27 00:49:34;;;;;;;9.30;3.70;;;;;;;2.02;72.53;96741.80;109204;1272;22530;-83
2023/04/27 00:52:05;;;;;;;7.30;3.90;;;;;;;2.02;72.70;96741.61;109247;1272;22511;-83
2023/04/27 00:54:37;;;;;;;10.00;4.80;;;;;;;2.05;72.78;96741.83;109213;1266;22623;-83
2023/04/27 00:57:08;;;;;;;9.20;4.60;;;;;;;2.16;72.53;96742.33;109208;1272;22979;-83
2023/04/27 00:59:39;;;;;;;9.10;5.00;;;;;;;2.27;72.27;96739.91;109274;1265;22523;-84
2023/04/27 01:02:12;;;;;;;11.20;4.50;;;;;;;2.29;72.41;96741.90;109266;1272;22521;-83
2023/04/27 01:04:44;;;;;;;8.60;4.40;;;;;;;2.29;72.29;96740.45;109245;1272;22546;-84
2023/04/27 01:07:15;;;;;;;9.90;4.60;;;;;;;2.32;72.08;96744.54;109243;1266;22577;-84
2023/04/27 01:09:46;;;;;;;9.30;4.40;;;;;;;2.32;72.17;96743.02;109278;1272;22507;-84
2023/04/27 01:12:17;;;;;;;7.40;4.50;;;;;;;2.31;72.19;96745.66;109269;1272;22588;-84
2023/04/27 01:14:48;;;;;;;7.90;4.20;;;;;;;2.33;72.41;96748.39;109304;1272;24190;-84
2023/04/27 01:17:21;;;;;;;9.90;4.10;;;;;;;2.31;72.26;96748.90;109321;1270;22498;-83
2023/04/27 01:19:54;;;;;;;9.60;4.60;;;;;;;2.33;72.53;96747.96;109326;1261;22537;-84
2023/04/27 01:22:25;;;;;;;11.20;5.10;;;;;;;2.32;72.46;96747.09;109280;1264;22511;-84
2023/04/27 01:24:56;;;;;;;11.20;5.50;;;;;;;2.35;72.50;96753.33;109271;1272;22832;-84
2023/04/27 01:27:27;;;;;;;8.30;4.30;;;;;;;2.36;72.84;96754.35;109242;1271;25259;-84
2023/04/27 01:29:58;;;;;;;7.90;4.20;;;;;;;2.34;72.62;96754.66;109343;1272;22728;-84
2023/04/27 01:32:29;;;;;;;10.60;4.80;;;;;;;2.34;72.66;96759.00;109273;1272;22542;-84
2023/04/27 01:35:00;;;;;;;9.40;5.00;;;;;;;2.37;72.45;96759.36;109330;1248;22569;-86
2023/04/27 01:37:31;;;;;;;9.50;5.10;;;;;;;2.42;72.22;96764.02;109306;1272;24910;-84
2023/04/27 01:40:03;;;;;;;9.90;5.00;;;;;;;2.43;72.29;96764.02;109161;1272;22507;-84
2023/04/27 01:42:34;;;;;;;9.30;4.90;;;;;;;2.41;72.37;96764.29;109294;1264;23909;-83
2023/04/27 01:45:07;;;;;;;7.40;4.90;;;;;;;2.43;72.31;96766.63;109253;1272;22508;-84
2023/04/27 01:47:38;;;;;;;12.20;5.20;;;;;;;2.40;72.44;96764.22;109229;1262;22538;-84
2023/04/27 01:50:10;;;;;;;10.20;4.60;;;;;;;2.38;72.29;96762.26;109269;1272;22511;-84
2023/04/27 01:52:41;;;;;;;11.10;5.50;;;;;;;2.36;72.34;96762.41;109334;1264;22590;-84
2023/04/27 01:55:12;;;;;;;8.70;4.50;;;;;;;2.35;72.51;96764.63;109272;1272;25437;-84
2023/04/27 01:57:43;;;;;;;7.50;4.60;;;;;;;2.29;72.61;96762.19;109157;1272;22515;-84
2023/04/27 02:00:16;;;;;;;8.20;4.60;;;;;;;2.30;72.52;96764.10;109234;1269;22823;-84
2023/04/27 02:02:49;;;;;;;11.50;5.00;;;;;;;2.26;72.88;96762.98;109231;1272;22542;-84
2023/04/27 02:05:21;;;;;;;10.70;5.40;;;;;;;2.18;72.89;96767.55;109201;1272;23858;-84
2023/04/27 02:07:52;;;;;;;10.80;5.00;;;;;;;2.14;73.27;96768.43;109143;1250;25394;-83
2023/04/27 02:10:23;;;;;;;9.10;4.30;;;;;;;2.10;73.33;96767.48;109252;1272;22555;-84
2023/04/27 02:12:55;;;;;;;11.00;4.80;;;;;;;2.16;73.54;96765.86;109262;1268;22507;-84
2023/04/27 02:15:26;;;;;;;10.60;5.60;;;;;;;2.19;73.45;96767.83;109285;1271;22521;-84
2023/04/27 02:17:57;;;;;;;9.90;5.70;;;;;;;2.18;73.49;96765.06;109231;1272;25406;-84
2023/04/27 02:20:29;;;;;;;11.10;5.60;;;;;;;2.15;73.78;96767.73;109376;1263;22507;-84
2023/04/27 02:23:01;;;;;;;9.60;5.30;;;;;;;2.17;73.91;96766.98;109292;1272;22515;-84
2023/04/27 02:25:31;;;;;;;12.40;5.40;;;;;;;2.17;74.04;96768.66;109245;1272;22530;-84
2023/04/27 02:28:02;;;;;;;12.70;5.40;;;;;;;2.18;74.13;96771.67;109266;1265;22550;-84
2023/04/27 02:30:33;;;;;;;10.30;6.00;;;;;;;2.17;74.16;96769.98;109285;1272;22512;-83
2023/04/27 02:33:05;;;;;;;10.90;5.70;;;;;;;2.14;74.42;96768.54;109156;1272;22508;-84
2023/04/27 02:35:36;;;;;;;10.30;5.20;;;;;;;2.12;74.50;96771.27;109233;1266;22512;-84
2023/04/27 02:38:06;;;;;;;14.40;6.60;;;;;;;2.11;74.85;96769.98;109146;1272;22527;-84
2023/04/27 02:40:37;;;;;;;10.40;5.40;;;;;;;2.11;74.77;96774.89;109282;1266;24314;-83
2023/04/27 02:43:09;;;;;;;9.70;5.70;;;;;;;2.16;74.85;96773.18;109227;1272;24589;-83
2023/04/27 02:45:40;;;;;;;12.10;5.50;;;;;;;2.19;74.97;96773.69;109255;1272;22518;-84
2023/04/27 02:48:11;;;;;;;10.30;5.40;;;;;;;2.23;74.89;96775.61;109232;1272;22530;-84
2023/04/27 02:50:44;;;;;;;8.30;4.80;;;;;;;2.28;74.66;96777.81;109259;1272;25409;-83
2023/04/27 02:53:15;;;;;;;15.40;5.80;;;;;;;2.33;74.63;96777.30;109295;1272;22542;-84
2023/04/27 02:55:49;;;;;;;10.40;6.10;;;;;;;2.36;74.55;96772.73;109210;1263;22614;-84
2023/04/27 02:58:20;;;;;;;10.00;5.20;;;;;;;2.36;75.08;96776.28;109255;1272;22575;-84
2023/04/27 03:00:55;;;;;;;9.80;6.60;;;;;;;2.34;74.97;96778.89;109262;1272;22479;-84
2023/04/27 03:03:26;;;;;;;11.30;5.80;;;;;;;2.37;75.00;96779.04;109257;1272;22620;-84
2023/04/27 03:05:57;;;;;;;12.10;5.10;;;;;;;2.41;74.57;96778.13;109222;1269;22549;-84
2023/04/27 03:08:28;;;;;;;10.60;5.60;;;;;;;2.45;74.62;96779.65;109166;1272;24275;-84
2023/04/27 03:10:59;;;;;;;13.10;5.80;;;;;;;2.49;74.41;96778.54;109251;1269;23206;-84
2023/04/27 03:13:30;;;;;;;11.90;5.50;;;;;;;2.49;74.41;96779.61;109208;1269;24241;-84
2023/04/27 03:16:01;;;;;;;11.30;5.60;;;;;;;2.48;74.42;96784.02;109249;1272;25271;-84
2023/04/27 03:18:32;;;;;;;15.80;5.90;;;;;;;2.43;74.41;96779.55;109184;1269;22532;-84
2023/04/27 03:21:08;;;;;;;11.50;5.60;;;;;;;2.38;74.31;96782.50;109387;1269;22523;-84
2023/04/27 03:23:40;;;;;;;14.00;5.90;;;;;;;2.32;74.32;96779.69;109297;1272;22629;-84
2023/04/27 03:26:12;;;;;;;11.90;5.80;;;;;;;2.23;74.45;96778.07;109196;1272;23206;-84
2023/04/27 03:28:43;;;;;;;12.20;5.70;;;;;;;2.12;74.72;96779.98;109162;1272;22490;-84
2023/04/27 03:31:15;;;;;;;10.60;5.90;;;;;;;2.05;75.18;96780.30;109234;1269;22470;-84
2023/04/27 03:33:46;;;;;;;11.00;6.10;;;;;;;1.96;75.30;96779.54;109278;1272;22519;-84
2023/04/27 03:36:17;;;;;;;10.10;5.10;;;;;;;1.89;75.68;96786.41;109325;1269;22541;-84
2023/04/27 03:38:48;;;;;;;9.80;4.70;;;;;;;1.83;75.97;96790.94;109290;1271;22529;-84
2023/04/27 03:41:19;;;;;;;11.40;5.60;;;;;;;1.85;76.04;96792.10;109215;1272;24433;-84
2023/04/27 03:43:52;;;;;;;10.40;5.80;;;;;;;1.90;76.23;96790.50;109252;1272;23053;-84
2023/04/27 03:46:23;;;;;;;11.90;5.60;;;;;;;1.95;75.97;96792.12;109191;1265;24209;-84
2023/04/27 03:48:54;;;;;;;12.40;5.70;;;;;;;2.01;75.98;96794.76;109241;1272;23210;-84
2023/04/27 03:51:25;;;;;;;9.80;4.80;;;;;;;2.03;75.64;96795.34;109138;1273;22528;-84
2023/04/27 03:53:56;;;;;;;11.30;5.90;;;;;;;2.07;75.74;96797.38;109238;1272;22621;-84
2023/04/27 03:56:27;;;;;;;11.40;5.70;;;;;;;2.13;75.63;96797.39;109262;1272;22886;-84
2023/04/27 03:58:58;;;;;;;10.60;5.20;;;;;;;2.18;75.58;96804.41;109171;1272;24167;-85
2023/04/27 04:01:29;;;;;;;9.10;5.20;;;;;;;2.25;75.35;96802.20;109250;1272;22973;-84
2023/04/27 04:04:00;;;;;;;8.90;5.10;;;;;;;2.32;75.17;96808.09;109223;1272;22502;-85
2023/04/27 04:06:31;;;;;;;10.70;5.80;;;;;;;2.38;75.21;96810.67;109220;1272;25802;-85
2023/04/27 04:09:03;;;;;;;11.10;5.40;;;;;;;2.46;74.85;96815.84;109209;1266;23622;-84
2023/04/27 04:11:34;;;;;;;11.70;5.60;;;;;;;2.56;74.92;96817.77;109231;1272;22514;-85
2023/04/27 04:14:05;;;;;;;10.10;6.00;;;;;;;2.65;74.59;96820.83;109207;1254;22511;-84
2023/04/27 04:16:36;;;;;;;9.00;4.70;;;;;;;2.77;74.43;96820.27;109240;1272;22514;-84
2023/04/27 04:19:07;;;;;;;11.10;5.70;;;;;;;2.90;74.32;96823.09;109288;1269;23441;-84
2023/04/27 04:21:38;;;;;;;9.90;5.10;;;;;;;3.03;74.27;96819.12;109331;1271;22612;-85
2023/04/27 04:24:10;;;;;;;9.80;5.40;;;;;;;3.17;73.97;96822.66;109232;1250;22518;-84
2023/04/27 04:26:41;;;;;;;9.60;5.40;;;;;;;3.24;73.61;96825.98;109199;1269;24917;-84
2023/04/27 04:29:12;;;;;;;8.50;5.00;;;;;;;3.26;73.19;96825.73;109149;1272;22562;-84
2023/04/27 04:31:43;;;;;;;8.80;4.70;;;;;;;3.30;73.15;96828.53;109224;1272;22508;-84
2023/04/27 04:34:14;;;;;;;11.40;5.70;;;;;;;3.31;72.95;96832.90;109233;1272;22581;-84
2023/04/27 04:36:45;;;;;;;8.50;4.90;;;;;;;3.31;73.02;96838.34;109202;1272;22504;-85
2023/04/27 04:39:16;;;;;;;9.20;5.10;;;;;;;3.32;72.93;96839.94;109234;1272;23923;-84
2023/04/27 04:41:49;;;;;;;12.60;6.50;;;;;;;3.32;72.99;96842.81;109218;1272;22548;-85
2023/04/27 04:44:20;;;;;;;10.20;5.40;;;;;;;3.29;72.62;96845.54;109234;1269;22546;-84
2023/04/27 04:46:51;;;;;;;9.00;4.40;;;;;;;3.29;72.73;96850.20;109192;1272;24235;-85
2023/04/27 04:49:25;;;;;;;9.00;4.90;;;;;;;3.30;72.65;96849.73;109239;1272;22511;-84
2023/04/27 04:51:56;;;;;;;11.10;5.30;;;;;;;3.30;72.34;96854.73;109308;1271;25234;-84
2023/04/27 04:54:27;;;;;;;9.70;5.20;;;;;;;3.30;72.59;96854.16;109300;1266;22537;-85
2023/04/27 04:56:59;;;;;;;10.70;5.30;;;;;;;3.30;72.39;96855.20;109194;1272;22532;-84
2023/04/27 04:59:32;;;;;;;9.70;5.60;;;;;;;3.31;72.65;96852.13;109168;1272;22514;-85
2023/04/27 05:02:03;;;;;;;11.40;5.40;;;;;;;3.43;73.16;96859.44;109203;1272;22491;-85
2023/04/27 05:04:34;;;;;;;11.00;5.40;;;;;;;3.97;73.96;96857.91;109175;1272;22532;-85
2023/04/27 05:07:06;;;;;;;10.40;5.30;;;;;;;4.65;73.01;96859.23;109227;1265;22600;-86
2023/04/27 05:09:37;;;;;;;11.00;5.80;;;;;;;4.96;71.70;96860.29;109216;1272;22660;-84
2023/04/27 05:12:08;;;;;;;12.10;6.10;;;;;;;4.78;70.94;96861.54;109198;1272;23669;-85
2023/04/27 05:14:39;;;;;;;11.60;5.60;;;;;;;4.67;70.68;96861.66;109206;1272;25423;-85
2023/04/27 05:17:10;;;;;;;11.80;5.50;;;;;;;4.67;70.40;96861.73;109135;1269;22599;-85
2023/04/27 05:19:41;;;;;;;12.60;4.90;;;;;;;5.36;69.96;96860.69;109281;1271;22522;-85
2023/04/27 05:22:12;;;;;;;11.40;5.50;;;;;;;5.27;68.27;96862.88;109244;1272;22539;-84
2023/04/27 05:24:43;;;;;;;11.70;5.20;;;;;;;5.00;68.47;96866.98;109163;1272;24200;-85
2023/04/27 05:27:15;;;;;;;9.00;4.70;;;;;;;4.94;67.94;96868.23;109206;1272;23291;-84
2023/04/27 05:29:46;;;;;;;9.70;5.10;;;;;;;5.44;67.59;96864.20;109226;1272;22529;-85
2023/04/27 05:32:17;;;;;;;11.60;5.60;;;;;;;5.22;66.60;96870.20;109330;1271;22910;-85
2023/04/27 05:34:48;;;;;;;8.50;5.00;;;;;;;4.96;67.65;96873.42;109214;1272;23205;-85
2023/04/27 05:37:19;;;;;;;10.40;5.50;;;;;;;4.76;67.87;96870.70;109175;1266;22534;-84
2023/04/27 05:39:50;;;;;;;8.00;4.60;;;;;;;4.80;68.16;96871.05;109114;1265;22557;-84
2023/04/27 05:42:21;;;;;;;9.60;5.00;;;;;;;5.30;67.63;96875.06;109122;1272;22568;-85
2023/04/27 05:44:52;;;;;;;10.90;5.10;;;;;;;6.89;67.01;96871.91;109100;1272;25476;-84
2023/04/27 05:47:22;;;;;;;11.90;5.50;;;;;;;8.70;61.43;96873.41;109116;1273;22511;-85
2023/04/27 05:49:54;;;;;;;9.90;5.00;;;;;;;8.02;58.84;96873.16;109102;1273;25445;-84
2023/04/27 05:52:29;;;;;;;10.10;5.40;;;;;;;6.71;59.66;96879.42;109080;1273;24218;-84
2023/04/27 05:55:00;;;;;;;9.50;5.50;;;;;;;5.91;61.44;96884.45;109149;1273;22712;-85
2023/04/27 05:57:32;;;;;;;9.30;5.50;;;;;;;5.65;63.01;96886.18;109073;1270;25418;-85
2023/04/27 06:00:07;;;;;;;11.50;4.90;;;;;;;5.77;63.06;96886.86;109126;1272;22535;-84
2023/04/27 06:02:38;;;;;;;11.70;5.70;;;;;;;5.49;63.17;96894.20;109169;1273;22547;-84
2023/04/27 06:05:10;;;;;;;7.70;4.50;;;;;;;5.48;63.90;96896.59;109136;1273;22514;-85
2023/04/27 06:07:42;;;;;;;11.30;5.50;;;;;;;6.42;63.92;96887.34;109117;1266;22655;-85
2023/04/27 06:10:15;;;;;;;9.30;5.70;;;;;;;7.71;62.90;96892.98;109205;1271;22548;-84
2023/04/27 06:12:46;;;;;;;10.10;4.80;;;;;;;10.00;60.00;96888.39;109130;1270;22570;-85
2023/04/27 06:15:17;;;;;;;9.40;4.80;;;;;;;11.77;55.23;96884.20;109134;1273;22532;-84
2023/04/27 06:17:48;;;;;;;8.10;4.90;;;;;;;12.91;52.00;96886.38;109088;1273;22518;-85
2023/04/27 06:20:19;;;;;;;6.90;4.80;;;;;;;13.76;49.21;96884.20;109193;1272;24398;-85
2023/04/27 06:22:50;;;;;;;9.50;4.50;;;;;;;14.44;47.05;96886.08;109118;1273;22824;-85
2023/04/27 06:25:22;;;;;;;6.40;4.20;;;;;;;15.15;46.23;96881.96;109135;1273;24143;-85
2023/04/27 06:27:53;;;;;;;6.10;4.00;;;;;;;15.94;44.94;96877.49;109116;1273;24768;-85
2023/04/27 06:30:24;;;;;;;7.80;4.00;;;;;;;16.94;43.91;96880.61;109119;1271;24302;-85
2023/04/27 06:32:55;;;;;;;6.90;3.60;;;;;;;17.94;43.50;96883.38;109120;1270;24250;-85
2023/04/27 06:35:26;;;;;;;8.40;4.40;;;;;;;19.20;43.02;96881.89;109126;1273;22482;-85
2023/04/27 06:37:57;;;;;;;7.70;4.10;;;;;;;20.68;42.65;96881.50;109149;1273;22975;-85
2023/04/27 06:40:28;;;;;;;5.80;3.90;;;;;;;22.06;41.14;96879.23;109106;1273;22543;-85
2023/04/27 06:42:59;;;;;;;7.20;4.40;;;;;;;23.18;38.91;96878.23;109123;1270;24202;-85
2023/04/27 06:45:31;;;;;;;8.40;4.10;;;;;;;23.09;35.15;96878.48;109156;1273;22530;-85
2023/04/27 06:48:02;;;;;;;5.60;3.40;;;;;;;22.48;34.67;96876.02;109107;1273;22553;-85
2023/04/27 06:50:33;;;;;;;7.90;3.70;;;;;;;19.89;32.25;96885.03;109082;1273;22582;-84
2023/04/27 06:53:04;;;;;;;8.20;4.30;;;;;;;17.39;34.17;96888.85;109164;1270;22663;-85
2023/04/27 06:55:35;;;;;;;5.40;3.50;;;;;;;14.96;35.94;96886.06;109175;1272;25398;-85
2023/04/27 06:58:05;;;;;;;7.20;3.60;;;;;;;12.89;38.47;96895.08;109122;1272;22522;-85
2023/04/27 07:00:36;;;;;;;8.00;3.30;;;;;;;11.08;40.89;96902.38;109168;1268;22518;-84
2023/04/27 07:03:07;;;;;;;8.80;3.90;;;;;;;9.83;42.79;96901.20;109176;1272;22614;-84
2023/04/27 07:05:38;;;;;;;6.00;3.90;;;;;;;8.82;45.08;96906.02;109111;1273;22514;-85
2023/04/27 07:08:09;;;;;;;6.60;3.60;;;;;;;8.00;46.80;96906.38;109149;1273;23068;-85
2023/04/27 07:10:40;;;;;;;8.50;3.60;;;;;;;7.55;48.28;96912.37;109142;1269;23876;-85
2023/04/27 07:13:11;;;;;;;8.10;4.70;;;;;;;7.23;49.41;96914.48;109189;1272;23742;-84
2023/04/27 07:15:42;;;;;;;7.90;4.30;;;;;;;7.31;49.76;96914.84;109098;1273;22509;-85
2023/04/27 07:18:13;;;;;;;8.80;4.00;;;;;;;8.02;50.57;96914.46;109114;1273;23137;-85
2023/04/27 07:20:44;;;;;;;8.50;4.30;;;;;;;9.81;49.32;96913.05;109236;1270;23991;-85
2023/04/27 07:23:16;;;;;;;8.10;3.50;;;;;;;10.08;47.29;96907.13;109230;1272;22554;-85
2023/04/27 07:25:48;;;;;;;8.20;3.20;;;;;;;10.38;47.07;96908.63;109161;1266;23985;-84
2023/04/27 07:28:18;;;;;;;5.30;3.00;;;;;;;10.30;46.14;96912.98;109098;1273;22577;-84
2023/04/27 07:30:49;;;;;;;4.90;2.50;;;;;;;9.77;46.35;96910.59;109194;1266;22569;-84
2023/04/27 07:33:21;;;;;;;5.60;2.50;;;;;;;9.39;47.30;96920.57;109190;1272;23801;-84
2023/04/27 07:35:52;;;;;;;6.60;2.80;;;;;;;9.18;47.21;96925.44;109151;1272;22779;-84
2023/04/27 07:38:24;;;;;;;8.70;3.40;;;;;;;9.14;47.88;96924.17;109091;1273;22504;-84
2023/04/27 07:40:55;;;;;;;8.80;4.00;;;;;;;9.22;47.88;96926.30;109081;1273;22475;-84
2023/04/27 07:43:26;;;;;;;7.10;4.00;;;;;;;10.55;48.76;96924.26;109161;1273;22514;-84
2023/04/27 07:45:58;;;;;;;8.40;3.40;;;;;;;13.64;48.94;96918.98;109138;1273;22543;-84
2023/04/27 07:48:29;;;;;;;7.10;3.10;;;;;;;15.09;43.23;96914.30;109120;1271;22562;-83
2023/04/27 07:51:00;;;;;;;8.60;3.10;;;;;;;13.56;42.22;96919.89;109108;1273;22519;-84
2023/04/27 07:53:31;;;;;;;5.40;2.30;;;;;;;12.64;42.72;96919.00;109109;1262;24166;-84
2023/04/27 07:56:05;;;;;;;5.50;2.40;;;;;;;11.84;42.52;96922.71;109111;1273;23847;-84
2023/04/27 07:58:36;;;;;;;8.80;3.00;;;;;;;11.23;43.52;96927.38;109106;1270;22585;-84
2023/04/27 08:01:07;;;;;;;7.20;3.20;;;;;;;10.60;43.56;96927.60;109180;1272;22527;-84
2023/04/27 08:03:38;;;;;;;5.10;3.10;;;;;;;10.25;44.55;96931.50;109102;1273;22536;-84
2023/04/27 08:06:10;;;;;;;4.70;1.90;;;;;;;9.82;44.14;96933.10;109133;1271;22494;-84
2023/04/27 08:08:41;;;;;;;5.10;2.80;;;;;;;9.43;44.33;96935.70;109119;1265;22514;-84
2023/04/27 08:11:12;;;;;;;7.20;3.00;;;;;;;9.30;45.04;96936.77;109120;1273;25946;-84
2023/04/27 08:13:43;;;;;;;6.90;2.70;;;;;;;9.21;45.16;96937.52;109184;1269;22506;-84
2023/04/27 08:16:14;;;;;;;5.90;2.40;;;;;;;8.66;45.00;96935.05;109087;1273;24301;-84
2023/04/27 08:18:46;;;;;;;4.70;2.40;;;;;;;7.99;45.54;96943.34;109133;1266;22520;-84
2023/04/27 08:21:17;;;;;;;7.00;3.40;;;;;;;7.65;46.90;96946.06;109211;1272;25396;-84
2023/04/27 08:23:48;;;;;;;6.20;3.40;;;;;;;7.32;48.44;96942.75;109111;1273;22578;-84
2023/04/27 08:26:19;;;;;;;5.20;3.00;;;;;;;7.41;49.34;96944.80;109142;1273;22645;-84
2023/04/27 08:28:50;;;;;;;5.80;2.80;;;;;;;7.49;49.22;96943.92;109137;1273;24787;-84
2023/04/27 08:31:21;;;;;;;6.50;3.40;;;;;;;7.61;49.85;96946.89;109121;1273;25410;-84
2023/04/27 08:33:53;;;;;;;6.80;2.80;;;;;;;7.52;50.74;96951.65;109125;1273;22529;-84
2023/04/27 08:36:25;;;;;;;6.20;3.20;;;;;;;7.59;51.36;96953.30;109231;1272;22513;-84
2023/04/27 08:38:56;;;;;;;6.50;3.50;;;;;;;7.97;51.54;96952.09;109095;1271;24863;-84
2023/04/27 08:41:27;;;;;;;4.70;2.40;;;;;;;8.38;50.52;96949.31;109215;1265;22466;-84
2023/04/27 08:43:58;;;;;;;5.70;2.70;;;;;;;8.27;48.53;96950.77;109130;1273;22468;-84
2023/04/27 08:46:30;;;;;;;6.50;2.60;;;;;;;8.20;48.81;96952.31;109073;1273;22566;-84
2023/04/27 08:49:01;;;;;;;5.70;2.50;;;;;;;8.02;48.19;96957.03;109095;1273;22996;-84
2023/04/27 08:51:34;;;;;;;4.70;2.40;;;;;;;7.89;48.71;96953.77;109138;1273;22545;-84
2023/04/27 08:54:05;;;;;;;5.90;2.20;;;;;;;7.90;48.58;96948.55;109126;1273;22591;-84
2023/04/27 08:56:36;;;;;;;3.70;2.20;;;;;;;8.22;47.92;96950.27;109125;1273;22558;-84
2023/04/27 08:59:16;;;;;;;7.10;2.70;;;;;;;8.43;47.35;96948.77;109126;1270;22597;-84
2023/04/27 09:01:48;;;;;;;5.80;2.70;;;;;;;8.85;47.63;96952.62;109135;1273;22606;-84
2023/04/27 09:04:19;;;;;;;5.10;2.80;;;;;;;10.41;48.51;96944.42;109100;1273;22580;-84
2023/04/27 09:06:50;;;;;;;4.80;2.50;;;;;;;12.34;47.04;96940.14;109103;1271;22523;-84
2023/04/27 09:09:25;;;;;;;5.80;2.40;;;;;;;13.48;43.52;96940.52;109154;1273;22525;-84
2023/04/27 09:11:56;;;;;;;4.90;2.40;;;;;;;14.27;41.25;96931.71;109114;1273;25410;-83
2023/04/27 09:14:27;;;;;;;5.30;2.50;;;;;;;13.74;39.93;96924.63;109126;1269;25425;-84
2023/04/27 09:16:59;;;;;;;3.90;2.40;;;;;;;13.71;41.75;96927.55;109051;1266;22604;-83
2023/04/27 09:19:31;;;;;;;3.60;2.30;;;;;;;13.43;39.95;96934.43;109192;1272;24238;-84
2023/04/27 09:22:13;;;;;;;6.40;3.10;;;;;;;12.43;40.30;96930.69;109309;1267;22653;-84
2023/04/27 09:24:53;;;;;;;4.30;2.20;;;;;;;11.15;41.20;96932.23;109148;1272;22647;-84
2023/04/27 09:27:24;;;;;;;6.60;2.70;;;;;;;10.23;42.26;96929.15;109144;1272;23762;-84
2023/04/27 09:29:55;;;;;;;6.00;2.90;;;;;;;9.83;43.21;96929.06;109175;1272;24159;-84
2023/04/27 09:32:26;;;;;;;5.30;2.50;;;;;;;9.40;44.19;96928.29;109246;1272;22525;-85
2023/04/27 09:34:57;;;;;;;4.50;3.00;;;;;;;8.84;44.96;96922.84;109116;1267;22511;-84
2023/04/27 09:37:29;;;;;;;6.20;3.40;;;;;;;8.07;46.41;96939.06;109115;1272;25705;-84
2023/04/27 09:40:02;;;;;;;7.30;3.50;;;;;;;7.57;47.96;96946.36;109207;1260;23770;-85
2023/04/27 09:42:34;;;;;;;6.90;3.30;;;;;;;7.22;48.99;96945.39;109134;1273;22526;-85
2023/04/27 09:45:06;;;;;;;5.30;3.20;;;;;;;7.23;50.50;96944.03;109096;1273;23676;-85
2023/04/27 09:47:38;;;;;;;7.40;3.30;;;;;;;7.28;50.87;96941.65;109124;1270;22570;-85
2023/04/27 09:50:12;;;;;;;5.70;3.30;;;;;;;7.30;50.96;96940.67;109122;1273;22572;-84
2023/04/27 09:52:43;;;;;;;7.00;3.20;;;;;;;7.34;51.22;96935.88;109175;1273;25437;-84
2023/04/27 09:55:18;;;;;;;6.10;2.80;;;;;;;7.44;51.40;96934.95;109159;1273;22538;-85
2023/04/27 09:57:55;;;;;;;4.30;2.90;;;;;;;7.55;51.86;96936.02;109118;1264;23745;-84
2023/04/27 10:00:42;;;;;;;5.70;3.40;;;;;;;7.75;51.82;96936.44;109118;1273;22739;-84
2023/04/27 10:03:27;;;;;;;6.10;3.10;;;;;;;7.95;51.05;96928.05;109190;1267;22631;-84
2023/04/27 10:06:43;;;;;;;6.70;3.40;;;;;;;8.24;51.38;96929.89;109106;1272;22474;-84
2023/04/27 10:09:16;;;;;;;5.40;2.80;;;;;;;8.66;50.68;96925.33;109094;1270;22524;-84
2023/04/27 10:11:47;;;;;;;5.50;3.30;;;;;;;8.91;49.67;96926.64;109076;1273;23547;-84
2023/04/27 10:14:20;;;;;;;7.50;3.50;;;;;;;9.13;49.78;96925.59;109154;1273;22513;-84
2023/04/27 10:16:54;;;;;;;6.50;3.50;;;;;;;9.74;50.02;96924.41;109140;1267;24244;-84
2023/04/27 10:19:26;;;;;;;5.80;2.80;;;;;;;10.05;48.25;96917.77;109139;1267;25022;-84
2023/04/27 10:21:59;;;;;;;5.20;3.00;;;;;;;9.65;46.32;96917.09;109117;1273;25403;-84
2023/04/27 10:24:40;;;;;;;4.70;2.80;;;;;;;9.24;47.01;96919.01;109080;1273;22505;-84
2023/04/27 10:27:17;;;;;;;7.90;2.90;;;;;;;9.09;47.02;96917.38;109065;1273;22583;-84
2023/04/27 10:29:49;;;;;;;4.30;2.50;;;;;;;9.14;47.07;96911.58;109091;1273;22596;-85
2023/04/27 10:32:27;;;;;;;4.90;2.50;;;;;;;9.19;45.77;96910.90;109132;1273;22522;-84
2023/04/27 10:35:10;;;;;;;5.90;2.60;;;;;;;9.27;45.99;96906.15;109162;1273;22533;-84
2023/04/27 10:37:42;;;;;;;5.90;2.80;;;;;;;9.31;45.62;96901.20;109100;1273;25074;-84
2023/04/27 10:40:17;;;;;;;5.30;2.70;;;;;;;9.34;45.71;96898.02;109060;1263;23154;-85
2023/04/27 10:42:49;;;;;;;4.10;3.00;;;;;;;9.61;46.39;96900.38;109129;1272;23257;-84
2023/04/27 10:45:30;;;;;;;4.70;3.00;;;;;;;9.76;45.01;96893.97;109181;1256;22532;-84
2023/04/27 10:48:02;;;;;;;5.70;2.90;;;;;;;9.86;45.91;96895.27;109069;1273;25276;-84
2023/04/27 10:50:34;;;;;;;7.20;3.00;;;;;;;10.03;45.70;96889.81;109160;1273;22980;-84
2023/04/27 10:53:06;;;;;;;4.60;2.40;;;;;;;10.18;45.80;96891.23;109100;1273;23537;-85
2023/04/27 10:55:37;;;;;;;5.30;3.00;;;;;;;10.07;44.50;96905.42;109103;1273;23789;-84
2023/04/27 10:58:08;;;;;;;9.90;3.50;;;;;;;9.44;43.81;96911.90;109263;1272;22549;-84
2023/04/27 11:00:42;;;;;;;4.90;2.80;;;;;;;8.72;44.49;96915.92;109115;1273;22494;-84
2023/04/27 11:03:16;;;;;;;3.90;2.40;;;;;;;8.15;45.78;96912.07;109238;1262;22590;-84
2023/04/27 11:05:49;;;;;;;6.00;2.80;;;;;;;7.70;46.51;96924.15;109085;1273;22538;-84
2023/04/27 11:08:20;;;;;;;6.40;3.30;;;;;;;7.49;47.13;96924.03;109099;1267;22638;-85
2023/04/27 11:10:52;;;;;;;7.30;3.30;;;;;;;7.41;47.98;96925.33;109111;1273;22833;-85
2023/04/27 11:13:26;;;;;;;7.70;3.60;;;;;;;7.35;48.26;96930.60;109080;1272;22542;-85
2023/04/27 11:15:59;;;;;;;5.20;2.90;;;;;;;7.34;48.45;96932.12;109081;1273;25021;-84
2023/04/27 11:18:36;;;;;;;6.90;3.60;;;;;;;7.38;48.91;96931.36;109030;1273;22520;-85
2023/04/27 11:21:12;;;;;;;5.50;3.40;;;;;;;7.34;49.08;96931.70;109147;1267;24217;-85
2023/04/27 11:23:43;;;;;;;6.90;3.50;;;;;;;7.26;49.24;96937.84;109126;1270;22543;-85
2023/04/27 11:26:16;;;;;;;7.20;3.90;;;;;;;7.23;49.28;96938.66;109134;1270;22480;-84
2023/04/27 11:28:57;;;;;;;4.30;3.50;;;;;;;7.39;49.79;96943.45;109137;1272;22537;-84
2023/04/27 11:31:38;;;;;;;6.10;2.90;;;;;;;7.61;49.48;96947.04;109118;1272;22516;-84
2023/04/27 11:34:09;;;;;;;5.30;3.10;;;;;;;7.70;49.58;96948.02;109170;1266;23885;-85
2023/04/27 11:36:40;;;;;;;5.50;3.10;;;;;;;7.87;49.59;96944.71;109232;1272;22571;-85
2023/04/27 11:39:20;;;;;;;7.00;3.20;;;;;;;8.00;49.31;96940.58;109106;1273;23761;-84
2023/04/27 11:41:50;;;;;;;;;;;;;;;8.01;49.08;96939.27;109175;1267;22612;-85
2023/04/27 11:44:27;;;;;;;8.10;3.40;;;;;;;8.01;48.99;96938.96;109107;1273;23340;-85
2023/04/27 11:47:00;;;;;;;10.10;8.30;;;;;;;8.16;49.10;96935.58;109110;1273;23864;-85
2023/04/27 11:49:31;;;;;;;20.60;14.10;;;;;;;8.25;48.37;96933.37;109105;1267;22624;-85
2023/04/27 11:52:04;;;;;;;7.60;4.20;;;;;;;8.27;48.21;96935.96;109113;1273;22532;-85